sensor_id;sensor_type;location;lat;lon;timestamp;P1;durP1;ratioP1;P2;durP2;ratioP2
21392;SDS011;10857;52.228;21.026;2023-12-20T00:02:18;31.97;;;21.03;;
21392;SDS011;10857;52.228;21.026;2023-12-20T00:04:45;34.67;;;19.93;;
21392;SDS011;10857;52.228;21.026;2023-12-20T00:07:12;29.50;;;19.73;;
21392;SDS011;10857;52.228;21.026;2023-12-20T00:09:39;33.67;;;21.40;;
21392;SDS011;10857;52.228;21.026;2023-12-20T00:12:07;29.70;;;19.23;;
21392;SDS011;10857;52.228;21.026;2023-12-20T00:14:34;28.97;;;19.27;;
21392;SDS011;10857;52.228;21.026;2023-12-20T00:17:01;29.90;;;20.03;;
21392;SDS011;10857;52.228;21.026;2023-12-20T00:19:28;31.20;;;19.53;;
21392;SDS011;10857;52.228;21.026;2023-12-20T00:21:55;29.80;;;19.30;;
21392;SDS011;10857;52.228;21.026;2023-12-20T00:24:22;30.97;;;19.67;;
21392;SDS011;10857;52.228;21.026;2023-12-20T00:26:49;30.77;;;20.13;;
21392;SDS011;10857;52.228;21.026;2023-12-20T00:29:17;32.37;;;19.80;;
21392;SDS011;10857;52.228;21.026;2023-12-20T00:31:44;30.30;;;19.57;;
21392;SDS011;10857;52.228;21.026;2023-12-20T00:34:12;30.33;;;20.73;;
21392;SDS011;10857;52.228;21.026;2023-12-20T00:36:39;31.20;;;20.30;;
21392;SDS011;10857;52.228;21.026;2023-12-20T00:39:06;29.40;;;19.40;;
21392;SDS011;10857;52.228;21.026;2023-12-20T00:41:33;28.83;;;19.27;;
21392;SDS011;10857;52.228;21.026;2023-12-20T00:44:00;27.50;;;19.20;;
21392;SDS011;10857;52.228;21.026;2023-12-20T00:46:27;27.40;;;19.23;;
21392;SDS011;10857;52.228;21.026;2023-12-20T00:48:54;27.77;;;18.73;;
21392;SDS011;10857;52.228;21.026;2023-12-20T00:51:21;30.07;;;19.60;;
21392;SDS011;10857;52.228;21.026;2023-12-20T00:53:49;29.67;;;19.80;;
21392;SDS011;10857;52.228;21.026;2023-12-20T00:56:21;27.10;;;18.70;;
21392;SDS011;10857;52.228;21.026;2023-12-20T00:58:48;29.00;;;19.23;;
21392;SDS011;10857;52.228;21.026;2023-12-20T01:01:15;27.27;;;18.13;;
21392;SDS011;10857;52.228;21.026;2023-12-20T01:03:42;30.47;;;18.90;;
21392;SDS011;10857;52.228;21.026;2023-12-20T01:06:10;26.47;;;18.60;;
21392;SDS011;10857;52.228;21.026;2023-12-20T01:08:37;27.63;;;18.83;;
21392;SDS011;10857;52.228;21.026;2023-12-20T01:11:04;25.00;;;17.70;;
21392;SDS011;10857;52.228;21.026;2023-12-20T01:13:32;28.80;;;18.47;;
21392;SDS011;10857;52.228;21.026;2023-12-20T01:15:59;25.33;;;18.17;;
21392;SDS011;10857;52.228;21.026;2023-12-20T01:18:26;29.13;;;19.00;;
21392;SDS011;10857;52.228;21.026;2023-12-20T01:20:53;28.27;;;17.37;;
21392;SDS011;10857;52.228;21.026;2023-12-20T01:23:20;27.93;;;17.80;;
21392;SDS011;10857;52.228;21.026;2023-12-20T01:25:48;28.60;;;18.90;;
21392;SDS011;10857;52.228;21.026;2023-12-20T01:28:15;26.10;;;18.10;;
21392;SDS011;10857;52.228;21.026;2023-12-20T01:30:42;25.77;;;16.90;;
21392;SDS011;10857;52.228;21.026;2023-12-20T01:33:09;27.17;;;17.90;;
21392;SDS011;10857;52.228;21.026;2023-12-20T01:35:36;25.13;;;18.23;;
21392;SDS011;10857;52.228;21.026;2023-12-20T01:38:03;26.73;;;17.13;;
21392;SDS011;10857;52.228;21.026;2023-12-20T01:40:30;26.43;;;17.17;;
21392;SDS011;10857;52.228;21.026;2023-12-20T01:43:01;25.97;;;17.30;;
21392;SDS011;10857;52.228;21.026;2023-12-20T01:45:32;25.27;;;18.00;;
21392;SDS011;10857;52.228;21.026;2023-12-20T01:47:59;26.67;;;17.77;;
21392;SDS011;10857;52.228;21.026;2023-12-20T01:50:29;27.07;;;17.37;;
21392;SDS011;10857;52.228;21.026;2023-12-20T01:52:58;25.77;;;16.60;;
21392;SDS011;10857;52.228;21.026;2023-12-20T01:55:27;27.37;;;17.23;;
21392;SDS011;10857;52.228;21.026;2023-12-20T01:57:57;26.53;;;17.90;;
21392;SDS011;10857;52.228;21.026;2023-12-20T02:00:26;25.70;;;16.63;;
21392;SDS011;10857;52.228;21.026;2023-12-20T02:02:55;23.03;;;14.77;;
21392;SDS011;10857;52.228;21.026;2023-12-20T02:05:27;22.90;;;15.77;;
21392;SDS011;10857;52.228;21.026;2023-12-20T02:07:57;22.33;;;14.63;;
21392;SDS011;10857;52.228;21.026;2023-12-20T02:10:25;18.23;;;12.67;;
21392;SDS011;10857;52.228;21.026;2023-12-20T02:12:52;19.00;;;12.67;;
21392;SDS011;10857;52.228;21.026;2023-12-20T02:15:19;17.83;;;12.30;;
21392;SDS011;10857;52.228;21.026;2023-12-20T02:17:47;19.70;;;13.03;;
21392;SDS011;10857;52.228;21.026;2023-12-20T02:20:15;19.10;;;12.67;;
21392;SDS011;10857;52.228;21.026;2023-12-20T02:22:42;17.93;;;12.70;;
21392;SDS011;10857;52.228;21.026;2023-12-20T02:25:09;17.67;;;12.20;;
21392;SDS011;10857;52.228;21.026;2023-12-20T02:27:36;18.30;;;12.07;;
21392;SDS011;10857;52.228;21.026;2023-12-20T02:30:03;17.33;;;11.57;;
21392;SDS011;10857;52.228;21.026;2023-12-20T02:32:31;16.67;;;11.17;;
21392;SDS011;10857;52.228;21.026;2023-12-20T02:34:58;17.07;;;10.50;;
21392;SDS011;10857;52.228;21.026;2023-12-20T02:37:26;16.10;;;11.10;;
21392;SDS011;10857;52.228;21.026;2023-12-20T02:39:53;15.33;;;9.80;;
21392;SDS011;10857;52.228;21.026;2023-12-20T02:42:20;15.23;;;10.47;;
21392;SDS011;10857;52.228;21.026;2023-12-20T02:44:47;16.50;;;10.70;;
21392;SDS011;10857;52.228;21.026;2023-12-20T02:47:14;13.40;;;9.87;;
21392;SDS011;10857;52.228;21.026;2023-12-20T02:49:41;15.40;;;10.60;;
21392;SDS011;10857;52.228;21.026;2023-12-20T02:52:08;14.00;;;9.20;;
21392;SDS011;10857;52.228;21.026;2023-12-20T02:54:35;14.43;;;9.47;;
21392;SDS011;10857;52.228;21.026;2023-12-20T02:57:02;14.17;;;9.07;;
21392;SDS011;10857;52.228;21.026;2023-12-20T02:59:29;10.67;;;7.50;;
21392;SDS011;10857;52.228;21.026;2023-12-20T03:01:56;11.53;;;7.67;;
21392;SDS011;10857;52.228;21.026;2023-12-20T03:04:23;10.17;;;7.20;;
21392;SDS011;10857;52.228;21.026;2023-12-20T03:06:50;10.73;;;7.10;;
21392;SDS011;10857;52.228;21.026;2023-12-20T03:09:18;8.63;;;6.07;;
21392;SDS011;10857;52.228;21.026;2023-12-20T03:11:45;9.23;;;6.20;;
21392;SDS011;10857;52.228;21.026;2023-12-20T03:14:12;8.63;;;6.07;;
21392;SDS011;10857;52.228;21.026;2023-12-20T03:16:39;9.43;;;6.37;;
21392;SDS011;10857;52.228;21.026;2023-12-20T03:19:06;7.63;;;5.77;;
21392;SDS011;10857;52.228;21.026;2023-12-20T03:21:33;9.13;;;5.90;;
21392;SDS011;10857;52.228;21.026;2023-12-20T03:24:00;7.57;;;5.80;;
21392;SDS011;10857;52.228;21.026;2023-12-20T03:26:26;8.50;;;5.77;;
21392;SDS011;10857;52.228;21.026;2023-12-20T03:28:53;7.80;;;5.53;;
21392;SDS011;10857;52.228;21.026;2023-12-20T03:31:20;8.20;;;5.93;;
21392;SDS011;10857;52.228;21.026;2023-12-20T03:33:48;7.70;;;5.63;;
21392;SDS011;10857;52.228;21.026;2023-12-20T03:36:15;8.97;;;6.20;;
21392;SDS011;10857;52.228;21.026;2023-12-20T03:38:43;7.33;;;5.60;;
21392;SDS011;10857;52.228;21.026;2023-12-20T03:41:10;7.67;;;5.50;;
21392;SDS011;10857;52.228;21.026;2023-12-20T03:43:37;8.27;;;5.80;;
21392;SDS011;10857;52.228;21.026;2023-12-20T03:46:05;9.97;;;5.90;;
21392;SDS011;10857;52.228;21.026;2023-12-20T03:48:34;6.90;;;5.47;;
21392;SDS011;10857;52.228;21.026;2023-12-20T03:51:01;8.30;;;5.60;;
21392;SDS011;10857;52.228;21.026;2023-12-20T03:53:28;8.73;;;6.13;;
21392;SDS011;10857;52.228;21.026;2023-12-20T03:55:55;8.33;;;5.90;;
21392;SDS011;10857;52.228;21.026;2023-12-20T03:58:22;7.63;;;5.80;;
21392;SDS011;10857;52.228;21.026;2023-12-20T04:00:49;7.50;;;5.80;;
21392;SDS011;10857;52.228;21.026;2023-12-20T04:03:16;8.60;;;6.00;;
21392;SDS011;10857;52.228;21.026;2023-12-20T04:05:43;10.57;;;6.60;;
21392;SDS011;10857;52.228;21.026;2023-12-20T04:08:10;9.37;;;6.10;;
21392;SDS011;10857;52.228;21.026;2023-12-20T04:10:37;8.50;;;6.63;;
21392;SDS011;10857;52.228;21.026;2023-12-20T04:13:04;8.90;;;7.30;;
21392;SDS011;10857;52.228;21.026;2023-12-20T04:15:32;10.37;;;7.50;;
21392;SDS011;10857;52.228;21.026;2023-12-20T04:17:59;11.50;;;7.57;;
21392;SDS011;10857;52.228;21.026;2023-12-20T04:20:26;11.37;;;8.17;;
21392;SDS011;10857;52.228;21.026;2023-12-20T04:22:53;12.23;;;8.00;;
21392;SDS011;10857;52.228;21.026;2023-12-20T04:25:19;12.03;;;8.60;;
21392;SDS011;10857;52.228;21.026;2023-12-20T04:27:47;12.27;;;9.27;;
21392;SDS011;10857;52.228;21.026;2023-12-20T04:30:14;14.50;;;9.23;;
21392;SDS011;10857;52.228;21.026;2023-12-20T04:32:41;14.33;;;10.07;;
21392;SDS011;10857;52.228;21.026;2023-12-20T04:35:08;13.97;;;10.13;;
21392;SDS011;10857;52.228;21.026;2023-12-20T04:37:36;15.77;;;10.20;;
21392;SDS011;10857;52.228;21.026;2023-12-20T04:40:03;18.43;;;10.77;;
21392;SDS011;10857;52.228;21.026;2023-12-20T04:42:32;17.70;;;11.60;;
21392;SDS011;10857;52.228;21.026;2023-12-20T04:44:59;16.47;;;11.57;;
21392;SDS011;10857;52.228;21.026;2023-12-20T04:47:26;16.83;;;12.03;;
21392;SDS011;10857;52.228;21.026;2023-12-20T04:49:53;17.23;;;11.47;;
21392;SDS011;10857;52.228;21.026;2023-12-20T04:52:20;18.53;;;12.07;;
21392;SDS011;10857;52.228;21.026;2023-12-20T04:54:48;17.97;;;12.30;;
21392;SDS011;10857;52.228;21.026;2023-12-20T04:57:15;17.83;;;12.43;;
21392;SDS011;10857;52.228;21.026;2023-12-20T04:59:42;22.50;;;12.63;;
21392;SDS011;10857;52.228;21.026;2023-12-20T05:02:09;17.47;;;11.43;;
21392;SDS011;10857;52.228;21.026;2023-12-20T05:04:36;18.53;;;12.13;;
21392;SDS011;10857;52.228;21.026;2023-12-20T05:07:03;19.70;;;12.33;;
21392;SDS011;10857;52.228;21.026;2023-12-20T05:09:31;17.23;;;11.83;;
21392;SDS011;10857;52.228;21.026;2023-12-20T05:11:58;18.37;;;12.93;;
21392;SDS011;10857;52.228;21.026;2023-12-20T05:14:27;22.33;;;12.97;;
21392;SDS011;10857;52.228;21.026;2023-12-20T05:16:54;23.10;;;13.97;;
21392;SDS011;10857;52.228;21.026;2023-12-20T05:19:23;20.30;;;12.97;;
21392;SDS011;10857;52.228;21.026;2023-12-20T05:21:51;19.40;;;13.20;;
21392;SDS011;10857;52.228;21.026;2023-12-20T05:24:18;19.87;;;12.83;;
21392;SDS011;10857;52.228;21.026;2023-12-20T05:26:45;20.47;;;13.60;;
21392;SDS011;10857;52.228;21.026;2023-12-20T05:29:15;20.47;;;13.93;;
21392;SDS011;10857;52.228;21.026;2023-12-20T05:31:43;21.07;;;13.73;;
21392;SDS011;10857;52.228;21.026;2023-12-20T05:34:10;21.57;;;13.13;;
21392;SDS011;10857;52.228;21.026;2023-12-20T05:36:37;20.37;;;13.60;;
21392;SDS011;10857;52.228;21.026;2023-12-20T05:39:05;21.50;;;14.20;;
21392;SDS011;10857;52.228;21.026;2023-12-20T05:41:34;23.83;;;14.17;;
21392;SDS011;10857;52.228;21.026;2023-12-20T05:44:01;21.33;;;13.70;;
21392;SDS011;10857;52.228;21.026;2023-12-20T05:46:28;21.40;;;14.07;;
21392;SDS011;10857;52.228;21.026;2023-12-20T05:48:55;21.30;;;13.67;;
21392;SDS011;10857;52.228;21.026;2023-12-20T05:51:22;23.17;;;13.70;;
21392;SDS011;10857;52.228;21.026;2023-12-20T05:53:50;23.03;;;14.53;;
21392;SDS011;10857;52.228;21.026;2023-12-20T05:56:17;22.83;;;16.92;;
21392;SDS011;10857;52.228;21.026;2023-12-20T05:58:43;21.27;;;14.80;;
21392;SDS011;10857;52.228;21.026;2023-12-20T06:01:10;20.07;;;13.63;;
21392;SDS011;10857;52.228;21.026;2023-12-20T06:03:41;21.53;;;14.30;;
21392;SDS011;10857;52.228;21.026;2023-12-20T06:06:09;19.60;;;12.90;;
21392;SDS011;10857;52.228;21.026;2023-12-20T06:08:42;21.30;;;13.50;;
21392;SDS011;10857;52.228;21.026;2023-12-20T06:11:10;20.07;;;13.10;;
21392;SDS011;10857;52.228;21.026;2023-12-20T06:13:37;19.67;;;12.60;;
21392;SDS011;10857;52.228;21.026;2023-12-20T06:16:05;19.20;;;12.87;;
21392;SDS011;10857;52.228;21.026;2023-12-20T06:18:33;20.17;;;12.93;;
21392;SDS011;10857;52.228;21.026;2023-12-20T06:21:01;19.17;;;12.43;;
21392;SDS011;10857;52.228;21.026;2023-12-20T06:23:28;19.23;;;13.40;;
21392;SDS011;10857;52.228;21.026;2023-12-20T06:25:56;19.83;;;12.57;;
21392;SDS011;10857;52.228;21.026;2023-12-20T06:28:23;19.50;;;12.63;;
21392;SDS011;10857;52.228;21.026;2023-12-20T06:30:50;18.77;;;12.40;;
21392;SDS011;10857;52.228;21.026;2023-12-20T06:33:19;18.17;;;12.00;;
21392;SDS011;10857;52.228;21.026;2023-12-20T06:35:48;18.87;;;12.27;;
21392;SDS011;10857;52.228;21.026;2023-12-20T06:38:15;19.17;;;11.93;;
21392;SDS011;10857;52.228;21.026;2023-12-20T06:40:44;19.40;;;11.50;;
21392;SDS011;10857;52.228;21.026;2023-12-20T06:43:12;20.60;;;11.90;;
21392;SDS011;10857;52.228;21.026;2023-12-20T06:45:57;18.00;;;12.07;;
21392;SDS011;10857;52.228;21.026;2023-12-20T06:48:25;16.57;;;11.60;;
21392;SDS011;10857;52.228;21.026;2023-12-20T06:50:52;18.77;;;12.13;;
21392;SDS011;10857;52.228;21.026;2023-12-20T06:53:19;20.57;;;12.60;;
21392;SDS011;10857;52.228;21.026;2023-12-20T06:55:46;20.27;;;11.57;;
21392;SDS011;10857;52.228;21.026;2023-12-20T06:58:13;19.73;;;12.07;;
21392;SDS011;10857;52.228;21.026;2023-12-20T07:00:40;19.23;;;12.77;;
21392;SDS011;10857;52.228;21.026;2023-12-20T07:03:09;19.47;;;12.00;;
21392;SDS011;10857;52.228;21.026;2023-12-20T07:05:36;17.80;;;14.07;;
21392;SDS011;10857;52.228;21.026;2023-12-20T07:08:03;17.13;;;12.17;;
21392;SDS011;10857;52.228;21.026;2023-12-20T07:10:30;18.83;;;12.37;;
21392;SDS011;10857;52.228;21.026;2023-12-20T07:12:57;18.97;;;12.27;;
21392;SDS011;10857;52.228;21.026;2023-12-20T07:15:24;17.87;;;11.23;;
21392;SDS011;10857;52.228;21.026;2023-12-20T07:17:53;20.77;;;12.30;;
21392;SDS011;10857;52.228;21.026;2023-12-20T07:20:20;17.23;;;11.23;;
21392;SDS011;10857;52.228;21.026;2023-12-20T07:22:48;21.30;;;12.53;;
21392;SDS011;10857;52.228;21.026;2023-12-20T07:25:15;18.23;;;11.87;;
21392;SDS011;10857;52.228;21.026;2023-12-20T07:27:42;18.07;;;11.80;;
21392;SDS011;10857;52.228;21.026;2023-12-20T07:30:11;19.57;;;11.67;;
21392;SDS011;10857;52.228;21.026;2023-12-20T07:32:38;18.63;;;11.90;;
21392;SDS011;10857;52.228;21.026;2023-12-20T07:35:05;21.73;;;13.50;;
21392;SDS011;10857;52.228;21.026;2023-12-20T07:37:33;19.57;;;12.73;;
21392;SDS011;10857;52.228;21.026;2023-12-20T07:40:00;20.37;;;12.33;;
21392;SDS011;10857;52.228;21.026;2023-12-20T07:42:27;19.53;;;12.37;;
21392;SDS011;10857;52.228;21.026;2023-12-20T07:44:54;21.40;;;12.10;;
21392;SDS011;10857;52.228;21.026;2023-12-20T07:47:21;18.60;;;11.60;;
21392;SDS011;10857;52.228;21.026;2023-12-20T07:49:49;19.33;;;11.90;;
21392;SDS011;10857;52.228;21.026;2023-12-20T07:52:18;19.10;;;11.80;;
21392;SDS011;10857;52.228;21.026;2023-12-20T07:54:45;18.83;;;11.50;;
21392;SDS011;10857;52.228;21.026;2023-12-20T07:57:12;21.23;;;11.67;;
21392;SDS011;10857;52.228;21.026;2023-12-20T07:59:39;18.03;;;11.53;;
21392;SDS011;10857;52.228;21.026;2023-12-20T08:02:06;16.83;;;10.43;;
21392;SDS011;10857;52.228;21.026;2023-12-20T08:04:34;16.60;;;11.07;;
21392;SDS011;10857;52.228;21.026;2023-12-20T08:07:01;16.93;;;11.20;;
21392;SDS011;10857;52.228;21.026;2023-12-20T08:09:28;20.97;;;11.67;;
21392;SDS011;10857;52.228;21.026;2023-12-20T08:11:56;18.07;;;11.23;;
21392;SDS011;10857;52.228;21.026;2023-12-20T08:14:23;19.77;;;11.27;;
21392;SDS011;10857;52.228;21.026;2023-12-20T08:16:50;15.70;;;10.70;;
21392;SDS011;10857;52.228;21.026;2023-12-20T08:19:16;17.53;;;11.10;;
21392;SDS011;10857;52.228;21.026;2023-12-20T08:21:44;16.23;;;10.80;;
21392;SDS011;10857;52.228;21.026;2023-12-20T08:24:11;18.93;;;11.37;;
21392;SDS011;10857;52.228;21.026;2023-12-20T08:26:38;17.97;;;11.50;;
21392;SDS011;10857;52.228;21.026;2023-12-20T08:29:05;17.30;;;11.13;;
21392;SDS011;10857;52.228;21.026;2023-12-20T08:31:32;18.03;;;10.97;;
21392;SDS011;10857;52.228;21.026;2023-12-20T08:34:00;16.07;;;9.93;;
21392;SDS011;10857;52.228;21.026;2023-12-20T08:36:29;17.33;;;9.90;;
21392;SDS011;10857;52.228;21.026;2023-12-20T08:38:56;19.67;;;10.27;;
21392;SDS011;10857;52.228;21.026;2023-12-20T08:41:24;16.23;;;10.43;;
21392;SDS011;10857;52.228;21.026;2023-12-20T08:43:51;14.23;;;9.70;;
21392;SDS011;10857;52.228;21.026;2023-12-20T08:46:18;15.20;;;9.60;;
21392;SDS011;10857;52.228;21.026;2023-12-20T08:48:45;15.77;;;12.25;;
21392;SDS011;10857;52.228;21.026;2023-12-20T08:51:13;14.07;;;9.50;;
21392;SDS011;10857;52.228;21.026;2023-12-20T08:53:40;13.93;;;9.00;;
21392;SDS011;10857;52.228;21.026;2023-12-20T08:56:08;16.17;;;9.17;;
21392;SDS011;10857;52.228;21.026;2023-12-20T08:58:35;15.53;;;9.43;;
21392;SDS011;10857;52.228;21.026;2023-12-20T09:01:02;14.33;;;8.77;;
21392;SDS011;10857;52.228;21.026;2023-12-20T09:03:30;15.93;;;9.00;;
21392;SDS011;10857;52.228;21.026;2023-12-20T09:05:57;16.53;;;9.50;;
21392;SDS011;10857;52.228;21.026;2023-12-20T09:08:24;14.53;;;9.20;;
21392;SDS011;10857;52.228;21.026;2023-12-20T09:10:51;15.43;;;9.63;;
21392;SDS011;10857;52.228;21.026;2023-12-20T09:13:18;14.83;;;8.87;;
21392;SDS011;10857;52.228;21.026;2023-12-20T09:15:45;16.10;;;10.20;;
21392;SDS011;10857;52.228;21.026;2023-12-20T09:18:12;18.43;;;9.83;;
21392;SDS011;10857;52.228;21.026;2023-12-20T09:20:39;16.87;;;10.80;;
21392;SDS011;10857;52.228;21.026;2023-12-20T09:23:09;15.13;;;9.93;;
21392;SDS011;10857;52.228;21.026;2023-12-20T09:25:36;17.70;;;11.17;;
21392;SDS011;10857;52.228;21.026;2023-12-20T09:28:04;18.27;;;11.47;;
21392;SDS011;10857;52.228;21.026;2023-12-20T09:30:31;18.27;;;11.17;;
21392;SDS011;10857;52.228;21.026;2023-12-20T09:32:58;17.53;;;11.00;;
21392;SDS011;10857;52.228;21.026;2023-12-20T09:35:25;18.17;;;10.60;;
21392;SDS011;10857;52.228;21.026;2023-12-20T09:37:53;16.80;;;10.07;;
21392;SDS011;10857;52.228;21.026;2023-12-20T09:40:20;15.30;;;10.03;;
21392;SDS011;10857;52.228;21.026;2023-12-20T09:42:59;15.87;;;10.77;;
21392;SDS011;10857;52.228;21.026;2023-12-20T09:45:31;15.40;;;10.17;;
21392;SDS011;10857;52.228;21.026;2023-12-20T09:47:58;15.70;;;9.67;;
21392;SDS011;10857;52.228;21.026;2023-12-20T09:50:26;15.70;;;10.07;;
21392;SDS011;10857;52.228;21.026;2023-12-20T09:52:54;15.53;;;9.90;;
21392;SDS011;10857;52.228;21.026;2023-12-20T09:55:25;14.40;;;9.67;;
21392;SDS011;10857;52.228;21.026;2023-12-20T09:57:54;13.83;;;9.17;;
21392;SDS011;10857;52.228;21.026;2023-12-20T10:00:23;14.03;;;8.97;;
21392;SDS011;10857;52.228;21.026;2023-12-20T10:02:50;14.07;;;9.70;;
21392;SDS011;10857;52.228;21.026;2023-12-20T10:05:28;13.37;;;8.80;;
21392;SDS011;10857;52.228;21.026;2023-12-20T10:07:57;15.07;;;9.40;;
21392;SDS011;10857;52.228;21.026;2023-12-20T10:10:26;11.97;;;8.53;;
21392;SDS011;10857;52.228;21.026;2023-12-20T10:13:09;14.47;;;8.40;;
21392;SDS011;10857;52.228;21.026;2023-12-20T10:15:38;12.63;;;8.33;;
21392;SDS011;10857;52.228;21.026;2023-12-20T10:18:05;14.20;;;8.50;;
21392;SDS011;10857;52.228;21.026;2023-12-20T10:20:33;12.50;;;8.10;;
21392;SDS011;10857;52.228;21.026;2023-12-20T10:23:00;14.87;;;7.80;;
21392;SDS011;10857;52.228;21.026;2023-12-20T10:25:28;13.33;;;8.07;;
21392;SDS011;10857;52.228;21.026;2023-12-20T10:28:14;14.70;;;8.40;;
21392;SDS011;10857;52.228;21.026;2023-12-20T10:30:45;12.77;;;8.37;;
21392;SDS011;10857;52.228;21.026;2023-12-20T10:33:13;12.43;;;7.53;;
21392;SDS011;10857;52.228;21.026;2023-12-20T10:35:40;14.67;;;8.40;;
21392;SDS011;10857;52.228;21.026;2023-12-20T10:38:12;11.97;;;7.87;;
21392;SDS011;10857;52.228;21.026;2023-12-20T10:40:41;11.13;;;8.17;;
21392;SDS011;10857;52.228;21.026;2023-12-20T10:43:09;11.97;;;7.93;;
21392;SDS011;10857;52.228;21.026;2023-12-20T10:45:37;12.93;;;8.93;;
21392;SDS011;10857;52.228;21.026;2023-12-20T10:48:05;12.63;;;8.60;;
21392;SDS011;10857;52.228;21.026;2023-12-20T10:50:32;15.10;;;8.83;;
21392;SDS011;10857;52.228;21.026;2023-12-20T10:53:02;12.50;;;8.37;;
21392;SDS011;10857;52.228;21.026;2023-12-20T10:55:30;12.53;;;8.47;;
21392;SDS011;10857;52.228;21.026;2023-12-20T10:58:00;12.17;;;8.40;;
21392;SDS011;10857;52.228;21.026;2023-12-20T11:00:29;13.33;;;8.87;;
21392;SDS011;10857;52.228;21.026;2023-12-20T11:03:01;13.50;;;9.03;;
21392;SDS011;10857;52.228;21.026;2023-12-20T11:05:36;13.83;;;8.97;;
21392;SDS011;10857;52.228;21.026;2023-12-20T11:11:16;12.13;;;8.50;;
21392;SDS011;10857;52.228;21.026;2023-12-20T11:14:00;15.63;;;8.17;;
21392;SDS011;10857;52.228;21.026;2023-12-20T11:16:32;13.57;;;8.17;;
21392;SDS011;10857;52.228;21.026;2023-12-20T11:19:13;12.93;;;7.60;;
21392;SDS011;10857;52.228;21.026;2023-12-20T11:21:41;11.20;;;7.70;;
21392;SDS011;10857;52.228;21.026;2023-12-20T11:24:09;10.90;;;7.43;;
21392;SDS011;10857;52.228;21.026;2023-12-20T11:26:36;11.37;;;7.73;;
21392;SDS011;10857;52.228;21.026;2023-12-20T11:31:55;13.00;;;8.07;;
21392;SDS011;10857;52.228;21.026;2023-12-20T11:34:22;12.23;;;7.53;;
21392;SDS011;10857;52.228;21.026;2023-12-20T11:36:57;12.10;;;8.23;;
21392;SDS011;10857;52.228;21.026;2023-12-20T11:39:26;11.93;;;7.93;;
21392;SDS011;10857;52.228;21.026;2023-12-20T11:41:56;10.07;;;7.00;;
21392;SDS011;10857;52.228;21.026;2023-12-20T11:44:25;11.30;;;7.30;;
21392;SDS011;10857;52.228;21.026;2023-12-20T11:46:52;10.57;;;7.47;;
21392;SDS011;10857;52.228;21.026;2023-12-20T11:49:24;12.87;;;8.07;;
21392;SDS011;10857;52.228;21.026;2023-12-20T11:51:51;12.00;;;7.87;;
21392;SDS011;10857;52.228;21.026;2023-12-20T11:54:19;14.60;;;8.83;;
21392;SDS011;10857;52.228;21.026;2023-12-20T11:56:46;15.23;;;8.60;;
21392;SDS011;10857;52.228;21.026;2023-12-20T11:59:14;13.77;;;8.47;;
21392;SDS011;10857;52.228;21.026;2023-12-20T12:01:49;14.87;;;9.40;;
21392;SDS011;10857;52.228;21.026;2023-12-20T12:04:18;15.63;;;9.83;;
21392;SDS011;10857;52.228;21.026;2023-12-20T12:06:46;13.27;;;8.60;;
21392;SDS011;10857;52.228;21.026;2023-12-20T12:09:13;13.90;;;9.27;;
21392;SDS011;10857;52.228;21.026;2023-12-20T12:11:41;13.90;;;9.00;;
21392;SDS011;10857;52.228;21.026;2023-12-20T12:14:09;15.87;;;9.67;;
21392;SDS011;10857;52.228;21.026;2023-12-20T12:16:37;13.43;;;8.80;;
21392;SDS011;10857;52.228;21.026;2023-12-20T12:19:05;14.70;;;9.53;;
21392;SDS011;10857;52.228;21.026;2023-12-20T12:21:32;15.40;;;9.73;;
21392;SDS011;10857;52.228;21.026;2023-12-20T12:24:06;14.53;;;9.97;;
21392;SDS011;10857;52.228;21.026;2023-12-20T12:26:33;15.93;;;9.50;;
21392;SDS011;10857;52.228;21.026;2023-12-20T12:29:01;15.33;;;10.00;;
21392;SDS011;10857;52.228;21.026;2023-12-20T12:31:28;16.60;;;10.33;;
21392;SDS011;10857;52.228;21.026;2023-12-20T12:33:55;16.53;;;9.60;;
21392;SDS011;10857;52.228;21.026;2023-12-20T12:36:23;14.83;;;9.60;;
21392;SDS011;10857;52.228;21.026;2023-12-20T12:38:50;16.60;;;9.97;;
21392;SDS011;10857;52.228;21.026;2023-12-20T12:41:17;15.83;;;10.33;;
21392;SDS011;10857;52.228;21.026;2023-12-20T12:43:45;17.13;;;10.27;;
21392;SDS011;10857;52.228;21.026;2023-12-20T12:46:11;16.80;;;10.43;;
21392;SDS011;10857;52.228;21.026;2023-12-20T12:48:39;19.03;;;10.87;;
21392;SDS011;10857;52.228;21.026;2023-12-20T12:51:09;14.80;;;9.50;;
21392;SDS011;10857;52.228;21.026;2023-12-20T12:53:39;19.87;;;10.60;;
21392;SDS011;10857;52.228;21.026;2023-12-20T12:56:07;16.87;;;10.87;;
21392;SDS011;10857;52.228;21.026;2023-12-20T12:58:34;18.10;;;11.03;;
21392;SDS011;10857;52.228;21.026;2023-12-20T13:01:01;19.17;;;11.00;;
21392;SDS011;10857;52.228;21.026;2023-12-20T13:03:30;18.00;;;11.50;;
21392;SDS011;10857;52.228;21.026;2023-12-20T13:05:57;20.23;;;11.33;;
21392;SDS011;10857;52.228;21.026;2023-12-20T13:08:25;20.47;;;12.40;;
21392;SDS011;10857;52.228;21.026;2023-12-20T13:10:52;20.43;;;12.47;;
21392;SDS011;10857;52.228;21.026;2023-12-20T13:13:19;20.30;;;11.40;;
21392;SDS011;10857;52.228;21.026;2023-12-20T13:15:46;19.40;;;12.07;;
21392;SDS011;10857;52.228;21.026;2023-12-20T13:18:17;20.63;;;12.10;;
21392;SDS011;10857;52.228;21.026;2023-12-20T13:20:45;19.50;;;13.43;;
21392;SDS011;10857;52.228;21.026;2023-12-20T13:23:12;19.40;;;11.30;;
21392;SDS011;10857;52.228;21.026;2023-12-20T13:25:40;17.50;;;11.13;;
21392;SDS011;10857;52.228;21.026;2023-12-20T13:28:07;21.40;;;11.83;;
21392;SDS011;10857;52.228;21.026;2023-12-20T13:30:34;20.07;;;11.00;;
21392;SDS011;10857;52.228;21.026;2023-12-20T13:33:02;19.30;;;11.10;;
21392;SDS011;10857;52.228;21.026;2023-12-20T13:35:29;18.83;;;11.07;;
21392;SDS011;10857;52.228;21.026;2023-12-20T13:37:57;21.27;;;11.70;;
21392;SDS011;10857;52.228;21.026;2023-12-20T13:40:25;20.17;;;11.93;;
21392;SDS011;10857;52.228;21.026;2023-12-20T13:42:52;22.30;;;11.97;;
21392;SDS011;10857;52.228;21.026;2023-12-20T13:45:19;21.83;;;12.10;;
21392;SDS011;10857;52.228;21.026;2023-12-20T13:47:46;16.73;;;10.47;;
21392;SDS011;10857;52.228;21.026;2023-12-20T13:50:13;19.10;;;11.10;;
21392;SDS011;10857;52.228;21.026;2023-12-20T13:52:40;18.63;;;11.90;;
21392;SDS011;10857;52.228;21.026;2023-12-20T13:55:08;17.93;;;10.90;;
21392;SDS011;10857;52.228;21.026;2023-12-20T13:57:35;17.57;;;10.43;;
21392;SDS011;10857;52.228;21.026;2023-12-20T14:00:09;19.40;;;10.60;;
21392;SDS011;10857;52.228;21.026;2023-12-20T14:02:41;17.73;;;10.80;;
21392;SDS011;10857;52.228;21.026;2023-12-20T14:05:09;18.40;;;11.57;;
21392;SDS011;10857;52.228;21.026;2023-12-20T14:07:37;22.23;;;10.73;;
21392;SDS011;10857;52.228;21.026;2023-12-20T14:10:04;17.80;;;10.17;;
21392;SDS011;10857;52.228;21.026;2023-12-20T14:12:32;19.07;;;9.70;;
21392;SDS011;10857;52.228;21.026;2023-12-20T14:15:02;16.97;;;9.20;;
21392;SDS011;10857;52.228;21.026;2023-12-20T14:17:29;13.30;;;8.53;;
21392;SDS011;10857;52.228;21.026;2023-12-20T14:19:58;15.63;;;8.83;;
21392;SDS011;10857;52.228;21.026;2023-12-20T14:22:25;15.77;;;9.20;;
21392;SDS011;10857;52.228;21.026;2023-12-20T14:24:53;16.60;;;8.73;;